createdAt,value
2023-04-21T00:00:03.964Z,88
2023-04-21T00:01:01.063Z,89
2023-04-21T00:02:01.210Z,89
2023-04-21T00:03:01.138Z,89
2023-04-21T00:04:01.352Z,89
2023-04-21T00:05:03.468Z,89
2023-04-21T00:06:01.151Z,89
2023-04-21T00:07:01.056Z,89
2023-04-21T00:08:01.113Z,89
2023-04-21T00:09:01.065Z,89
2023-04-21T00:10:05.520Z,89
2023-04-21T00:11:01.064Z,89
2023-04-21T00:12:01.177Z,89
2023-04-21T00:13:01.074Z,89
2023-04-21T00:14:01.167Z,89
2023-04-21T00:15:03.555Z,89
2023-04-21T00:16:01.181Z,89
2023-04-21T00:17:01.109Z,89
2023-04-21T00:18:01.283Z,89
2023-04-21T00:19:01.110Z,89
2023-04-21T00:20:04.008Z,89
2023-04-21T00:21:01.129Z,89
2023-04-21T00:22:01.241Z,89
2023-04-21T00:23:01.156Z,89
2023-04-21T00:24:01.229Z,89
2023-04-21T00:25:02.618Z,89
2023-04-21T00:26:00.229Z,89
2023-04-21T00:27:00.160Z,89
2023-04-21T00:28:00.251Z,89
2023-04-21T00:29:00.203Z,89
2023-04-21T00:30:03.251Z,89
2023-04-21T00:31:00.269Z,89
2023-04-21T00:32:00.272Z,89
2023-04-21T00:33:00.209Z,89
2023-04-21T00:34:00.296Z,89
2023-04-21T00:35:02.562Z,89
2023-04-21T00:36:00.265Z,89
2023-04-21T00:37:00.201Z,89
2023-04-21T00:38:00.284Z,89
2023-04-21T00:39:00.222Z,89
2023-04-21T00:40:03.096Z,89
2023-04-21T00:41:00.235Z,89
2023-04-21T00:42:00.319Z,89
2023-04-21T00:43:00.239Z,89
2023-04-21T00:44:00.341Z,89
2023-04-21T00:45:03.464Z,89
2023-04-21T00:46:00.349Z,89
2023-04-21T00:47:00.300Z,89
2023-04-21T00:48:00.394Z,89
2023-04-21T00:49:00.261Z,89
2023-04-21T00:50:02.905Z,89
2023-04-21T00:51:00.328Z,89
2023-04-21T00:52:00.382Z,89
2023-04-21T00:53:00.331Z,89
2023-04-21T00:54:00.432Z,89
2023-04-21T00:55:03.106Z,89
2023-04-21T00:56:00.405Z,89
2023-04-21T00:57:02.290Z,89
2023-04-21T00:58:00.398Z,89
2023-04-21T00:59:00.329Z,89
2023-04-21T01:00:03.204Z,89
2023-04-21T01:01:00.393Z,89
2023-04-21T01:02:00.570Z,89
2023-04-21T01:03:00.661Z,89
2023-04-21T01:04:00.499Z,89
2023-04-21T01:05:02.941Z,89
2023-04-21T01:06:00.480Z,89
2023-04-21T01:07:00.382Z,89
2023-04-21T01:08:00.475Z,89
2023-04-21T01:09:00.414Z,89
2023-04-21T01:10:04.383Z,89
2023-04-21T01:11:00.428Z,89
2023-04-21T01:12:00.490Z,89
2023-04-21T01:13:00.408Z,89
2023-04-21T01:14:00.492Z,89
2023-04-21T01:15:02.853Z,89
2023-04-21T01:16:00.512Z,89
2023-04-21T01:17:00.558Z,89
2023-04-21T01:18:00.554Z,89
2023-04-21T01:19:00.437Z,89
2023-04-21T01:20:03.218Z,89
2023-04-21T01:21:00.467Z,89
2023-04-21T01:22:00.553Z,89
2023-04-21T01:23:00.462Z,89
2023-04-21T01:24:00.573Z,89
2023-04-21T01:25:02.976Z,89
2023-04-21T01:26:00.572Z,89
2023-04-21T01:27:00.525Z,89
2023-04-21T01:28:00.593Z,89
2023-04-21T01:29:00.494Z,89
2023-04-21T01:30:03.437Z,89
2023-04-21T01:31:00.535Z,89
2023-04-21T01:32:00.690Z,89
2023-04-21T01:33:00.623Z,89
2023-04-21T01:34:00.601Z,89
2023-04-21T01:35:02.831Z,89
2023-04-21T01:36:00.650Z,89
2023-04-21T01:37:00.551Z,89
2023-04-21T01:38:00.655Z,89
2023-04-21T01:39:00.569Z,89
2023-04-21T01:40:04.109Z,89
2023-04-21T01:41:00.558Z,89
2023-04-21T01:42:00.666Z,89
2023-04-21T01:43:00.567Z,89
2023-04-21T01:44:00.675Z,89
2023-04-21T01:45:02.910Z,89
2023-04-21T01:46:00.689Z,90
2023-04-21T01:47:00.774Z,90
2023-04-21T01:48:00.720Z,90
2023-04-21T01:49:00.624Z,90
2023-04-21T01:50:03.766Z,90
2023-04-21T01:51:00.632Z,90
2023-04-21T01:52:00.722Z,90
2023-04-21T01:53:00.635Z,90
2023-04-21T01:54:00.775Z,90
2023-04-21T01:55:03.191Z,90
2023-04-21T01:56:00.763Z,90
2023-04-21T01:57:00.693Z,90
2023-04-21T01:58:00.756Z,90
2023-04-21T01:59:00.670Z,90
2023-04-21T02:00:03.695Z,90
2023-04-21T02:01:00.719Z,90
2023-04-21T02:02:00.815Z,90
2023-04-21T02:03:00.848Z,90
2023-04-21T02:04:01.006Z,90
2023-04-21T02:05:03.142Z,90
2023-04-21T02:06:00.833Z,90
2023-04-21T02:07:00.721Z,90
2023-04-21T02:08:00.837Z,90
2023-04-21T02:09:00.748Z,90
2023-04-21T02:10:03.593Z,90
2023-04-21T02:11:00.743Z,90
2023-04-21T02:12:00.861Z,90
2023-04-21T02:13:00.764Z,90
2023-04-21T02:14:00.875Z,90
2023-04-21T02:15:03.142Z,90
2023-04-21T02:16:12.809Z,90
2023-04-21T02:17:00.770Z,90
2023-04-21T02:18:00.911Z,90
2023-04-21T02:19:00.806Z,90
2023-04-21T02:20:04.246Z,90
2023-04-21T02:21:00.805Z,90
2023-04-21T02:22:00.884Z,90
2023-04-21T02:23:00.803Z,90
2023-04-21T02:24:00.883Z,90
2023-04-21T02:25:03.273Z,90
2023-04-21T02:26:00.925Z,90
2023-04-21T02:27:00.838Z,90
2023-04-21T02:28:00.901Z,90
2023-04-21T02:29:00.833Z,90
2023-04-21T02:30:04.352Z,90
2023-04-21T02:31:00.876Z,90
2023-04-21T02:32:07.786Z,90
2023-04-21T02:33:00.929Z,90
2023-04-21T02:34:00.956Z,90
2023-04-21T02:35:04.157Z,90
2023-04-21T02:36:00.966Z,90
2023-04-21T02:37:00.877Z,90
2023-04-21T02:38:00.975Z,90
2023-04-21T02:39:00.901Z,90
2023-04-21T02:40:04.748Z,90
2023-04-21T02:41:00.909Z,90
2023-04-21T02:42:01.033Z,90
2023-04-21T02:43:00.908Z,90
2023-04-21T02:44:01.053Z,90
2023-04-21T02:45:03.575Z,90
2023-04-21T02:46:00.991Z,90
2023-04-21T02:47:00.964Z,90
2023-04-21T02:48:01.086Z,90
2023-04-21T02:49:00.943Z,90
2023-04-21T02:50:03.763Z,90
2023-04-21T02:51:00.960Z,90
2023-04-21T02:52:01.031Z,90
2023-04-21T02:53:00.967Z,90
2023-04-21T02:54:01.041Z,90
2023-04-21T02:55:03.339Z,90
2023-04-21T02:56:01.073Z,90
2023-04-21T02:57:01.007Z,90
2023-04-21T02:58:01.065Z,90
2023-04-21T02:59:00.988Z,90
2023-04-21T03:00:04.008Z,90
2023-04-21T03:01:01.083Z,90
2023-04-21T03:02:01.166Z,90
2023-04-21T03:03:01.134Z,90
2023-04-21T03:04:01.251Z,90
2023-04-21T03:05:03.388Z,90
2023-04-21T03:06:01.123Z,90
2023-04-21T03:07:01.031Z,90
2023-04-21T03:08:01.208Z,91
2023-04-21T03:09:01.065Z,91
2023-04-21T03:10:04.369Z,91
2023-04-21T03:11:01.090Z,91
2023-04-21T03:12:01.185Z,91
2023-04-21T03:13:01.094Z,91
2023-04-21T03:14:01.184Z,91
2023-04-21T03:15:03.467Z,91
2023-04-21T03:16:01.229Z,91
2023-04-21T03:17:01.103Z,91
2023-04-21T03:18:01.303Z,91
2023-04-21T03:19:01.129Z,91
2023-04-21T03:20:03.899Z,91
2023-04-21T03:21:01.128Z,91
2023-04-21T03:22:01.207Z,91
2023-04-21T03:23:01.133Z,91
2023-04-21T03:24:01.245Z,91
2023-04-21T03:25:02.639Z,91
2023-04-21T03:26:00.250Z,91
2023-04-21T03:27:00.155Z,91
2023-04-21T03:28:00.226Z,91
2023-04-21T03:29:00.154Z,91
2023-04-21T03:30:03.874Z,91
2023-04-21T03:31:00.201Z,91
2023-04-21T03:32:00.333Z,91
2023-04-21T03:33:00.320Z,91
2023-04-21T03:34:00.300Z,91
2023-04-21T03:35:02.638Z,91
2023-04-21T03:36:00.317Z,91
2023-04-21T03:37:00.236Z,91
2023-04-21T03:38:01.956Z,91
2023-04-21T03:39:12.792Z,91
2023-04-21T03:40:03.292Z,91
2023-04-21T03:41:00.259Z,91
2023-04-21T03:42:00.359Z,91
2023-04-21T03:43:00.243Z,91
2023-04-21T03:44:00.355Z,91
2023-04-21T03:45:03.304Z,91
2023-04-21T03:46:00.391Z,91
2023-04-21T03:47:00.273Z,91
2023-04-21T03:48:00.411Z,91
2023-04-21T03:49:02.533Z,91
2023-04-21T03:50:03.202Z,91
2023-04-21T03:51:00.335Z,91
2023-04-21T03:52:00.390Z,91
2023-04-21T03:53:00.298Z,91
2023-04-21T03:54:00.410Z,91
2023-04-21T03:55:02.706Z,91
2023-04-21T03:56:00.420Z,91
2023-04-21T03:57:00.351Z,91
2023-04-21T03:58:03.460Z,91
2023-04-21T03:59:00.343Z,91
2023-04-21T04:00:04.461Z,91
2023-04-21T04:01:00.365Z,91
2023-04-21T04:02:00.587Z,91
2023-04-21T04:03:00.440Z,91
2023-04-21T04:04:00.678Z,91
2023-04-21T04:05:02.766Z,91
2023-04-21T04:06:00.506Z,91
2023-04-21T04:07:00.398Z,91
2023-04-21T04:08:00.502Z,91
2023-04-21T04:09:00.406Z,91
2023-04-21T04:10:03.262Z,91
2023-04-21T04:11:00.420Z,91
2023-04-21T04:12:01.585Z,91
2023-04-21T04:13:00.413Z,91
2023-04-21T04:14:00.567Z,91
2023-04-21T04:15:03.031Z,91
2023-04-21T04:16:00.590Z,91
2023-04-21T04:17:00.460Z,91
2023-04-21T04:18:00.644Z,91
2023-04-21T04:19:00.480Z,91
2023-04-21T04:20:03.293Z,91
2023-04-21T04:21:00.470Z,91
2023-04-21T04:22:00.562Z,91
2023-04-21T04:23:00.477Z,91
2023-04-21T04:24:00.564Z,91
2023-04-21T04:25:03.634Z,91
2023-04-21T04:26:00.656Z,91
2023-04-21T04:27:00.526Z,91
2023-04-21T04:28:00.590Z,91
2023-04-21T04:29:00.492Z,91
2023-04-21T04:30:03.543Z,91
2023-04-21T04:31:00.712Z,91
2023-04-21T04:32:00.612Z,91
2023-04-21T04:33:00.583Z,91
2023-04-21T04:34:00.639Z,91
2023-04-21T04:35:03.071Z,91
2023-04-21T04:36:00.691Z,91
2023-04-21T04:37:00.536Z,91
2023-04-21T04:38:00.648Z,91
2023-04-21T04:39:00.561Z,91
2023-04-21T04:40:03.581Z,91
2023-04-21T04:41:00.562Z,91
2023-04-21T04:42:00.664Z,91
2023-04-21T04:43:00.577Z,91
2023-04-21T04:44:01.134Z,91
2023-04-21T04:45:03.128Z,91
2023-04-21T04:46:00.660Z,91
2023-04-21T04:47:00.747Z,91
2023-04-21T04:48:00.761Z,91
2023-04-21T04:49:00.600Z,91
2023-04-21T04:50:03.634Z,91
2023-04-21T04:51:00.632Z,91
2023-04-21T04:52:00.705Z,91
2023-04-21T04:53:00.639Z,91
2023-04-21T04:54:00.719Z,91
2023-04-21T04:55:03.234Z,91
2023-04-21T04:56:00.862Z,91
2023-04-21T04:57:00.674Z,91
2023-04-21T04:58:00.731Z,91
2023-04-21T04:59:00.692Z,91
2023-04-21T05:00:03.850Z,91
2023-04-21T05:01:00.696Z,91
2023-04-21T05:02:00.897Z,92
2023-04-21T05:03:00.892Z,92
2023-04-21T05:04:01.004Z,92
2023-04-21T05:05:03.291Z,92
2023-04-21T05:06:00.861Z,92
2023-04-21T05:07:00.723Z,92
2023-04-21T05:08:00.825Z,92
2023-04-21T05:09:00.775Z,92
2023-04-21T05:10:04.449Z,92
2023-04-21T05:11:00.767Z,92
2023-04-21T05:12:00.867Z,92
2023-04-21T05:13:00.768Z,92
2023-04-21T05:14:00.838Z,92
2023-04-21T05:15:03.286Z,92
2023-04-21T05:16:00.833Z,92
2023-04-21T05:17:00.818Z,92
2023-04-21T05:18:00.898Z,92
2023-04-21T05:19:00.775Z,92
2023-04-21T05:20:04.719Z,92
2023-04-21T05:21:00.801Z,92
2023-04-21T05:22:01.919Z,92
2023-04-21T05:23:00.807Z,92
2023-04-21T05:24:01.217Z,92
2023-04-21T05:25:03.212Z,92
2023-04-21T05:26:04.006Z,92
2023-04-21T05:27:00.839Z,92
2023-04-21T05:28:00.900Z,92
2023-04-21T05:29:00.822Z,92
2023-04-21T05:30:04.022Z,92
2023-04-21T05:31:00.860Z,92
2023-04-21T05:32:00.990Z,92
2023-04-21T05:33:00.926Z,92
2023-04-21T05:34:00.922Z,92
2023-04-21T05:35:03.420Z,92
2023-04-21T05:36:01.151Z,92
2023-04-21T05:37:00.893Z,92
2023-04-21T05:38:01.045Z,92
2023-04-21T05:39:00.893Z,92
2023-04-21T05:40:03.748Z,92
2023-04-21T05:41:00.895Z,92
2023-04-21T05:42:00.981Z,92
2023-04-21T05:43:00.896Z,92
2023-04-21T05:44:02.070Z,92
2023-04-21T05:45:03.668Z,92
2023-04-21T05:46:01.038Z,92
2023-04-21T05:47:00.957Z,92
2023-04-21T05:48:01.061Z,92
2023-04-21T05:49:00.932Z,92
2023-04-21T05:50:04.138Z,92
2023-04-21T05:51:00.958Z,92
2023-04-21T05:52:01.021Z,92
2023-04-21T05:53:00.987Z,92
2023-04-21T05:54:01.066Z,92
2023-04-21T05:55:03.624Z,92
2023-04-21T05:56:01.062Z,92
2023-04-21T05:57:00.988Z,92
2023-04-21T05:58:01.074Z,92
2023-04-21T05:59:00.974Z,92
2023-04-21T06:00:03.991Z,92
2023-04-21T06:01:01.005Z,92
2023-04-21T06:02:01.190Z,92
2023-04-21T06:03:01.139Z,92
2023-04-21T06:04:01.305Z,92
2023-04-21T06:05:03.954Z,92
2023-04-21T06:06:01.196Z,92
2023-04-21T06:07:01.032Z,92
2023-04-21T06:08:01.152Z,92
2023-04-21T06:09:01.038Z,92
2023-04-21T06:10:04.451Z,92
2023-04-21T06:11:01.050Z,92
2023-04-21T06:12:01.133Z,92
2023-04-21T06:13:01.063Z,92
2023-04-21T06:14:01.158Z,92
2023-04-21T06:15:06.018Z,92
2023-04-21T06:16:01.194Z,92
2023-04-21T06:17:01.120Z,92
2023-04-21T06:18:01.309Z,92
2023-04-21T06:19:01.109Z,92
2023-04-21T06:20:04.034Z,92
2023-04-21T06:21:01.167Z,92
2023-04-21T06:22:01.222Z,92
2023-04-21T06:23:01.157Z,92
2023-04-21T06:24:01.207Z,92
2023-04-21T06:25:03.763Z,92
2023-04-21T06:26:01.316Z,92
2023-04-21T06:27:01.208Z,92
2023-04-21T06:28:00.236Z,92
2023-04-21T06:29:00.172Z,92
2023-04-21T06:30:02.953Z,92
2023-04-21T06:31:00.176Z,92
2023-04-21T06:32:00.322Z,92
2023-04-21T06:33:00.322Z,92
2023-04-21T06:34:00.276Z,92
2023-04-21T06:35:02.765Z,92
2023-04-21T06:36:00.292Z,92
2023-04-21T06:37:00.205Z,92
2023-04-21T06:38:00.303Z,92
2023-04-21T06:39:00.213Z,92
2023-04-21T06:40:03.019Z,92
2023-04-21T06:41:00.216Z,92
2023-04-21T06:42:00.329Z,92
2023-04-21T06:43:00.256Z,92
2023-04-21T06:44:00.350Z,92
2023-04-21T06:45:02.778Z,92
2023-04-21T06:46:00.333Z,92
2023-04-21T06:47:00.332Z,92
2023-04-21T06:48:00.481Z,92
2023-04-21T06:49:00.266Z,92
2023-04-21T06:50:03.196Z,92
2023-04-21T06:51:00.314Z,92
2023-04-21T06:52:00.626Z,92
2023-04-21T06:53:00.295Z,92
2023-04-21T06:54:00.374Z,92
2023-04-21T06:55:02.933Z,92
2023-04-21T06:56:00.417Z,92
2023-04-21T06:57:00.351Z,92
2023-04-21T06:58:00.435Z,92
2023-04-21T06:59:00.317Z,92
2023-04-21T07:00:03.685Z,92
2023-04-21T07:01:00.411Z,92
2023-04-21T07:02:00.539Z,91
2023-04-21T07:03:00.571Z,91
2023-04-21T07:04:00.566Z,91
2023-04-21T07:05:02.983Z,91
2023-04-21T07:06:00.517Z,91
2023-04-21T07:07:02.506Z,91
2023-04-21T07:08:00.494Z,91
2023-04-21T07:09:00.413Z,91
2023-04-21T07:10:04.435Z,91
2023-04-21T07:11:00.442Z,91
2023-04-21T07:12:00.526Z,91
2023-04-21T07:13:00.470Z,91
2023-04-21T07:14:00.560Z,91
2023-04-21T07:15:02.974Z,91
2023-04-21T07:16:00.526Z,91
2023-04-21T07:17:00.577Z,91
2023-04-21T07:18:00.691Z,91
2023-04-21T07:19:00.487Z,91
2023-04-21T07:20:03.521Z,91
2023-04-21T07:21:00.487Z,91
2023-04-21T07:22:00.543Z,91
2023-04-21T07:23:00.498Z,91
2023-04-21T07:24:00.565Z,91
2023-04-21T07:25:03.296Z,91
2023-04-21T07:26:00.604Z,91
2023-04-21T07:27:00.513Z,91
2023-04-21T07:28:00.573Z,91
2023-04-21T07:29:00.492Z,91
2023-04-21T07:30:03.703Z,91
2023-04-21T07:31:03.379Z,91
2023-04-21T07:32:00.626Z,91
2023-04-21T07:33:00.645Z,91
2023-04-21T07:34:00.606Z,91
2023-04-21T07:35:03.325Z,91
2023-04-21T07:36:00.630Z,91
2023-04-21T07:37:00.563Z,90
2023-04-21T07:38:00.811Z,90
2023-04-21T07:39:00.572Z,90
2023-04-21T07:40:03.511Z,90
2023-04-21T07:41:00.590Z,90
2023-04-21T07:42:00.664Z,90
2023-04-21T07:43:00.593Z,90
2023-04-21T07:44:00.683Z,90
2023-04-21T07:45:03.076Z,89
2023-04-21T07:46:00.760Z,89
2023-04-21T07:47:00.613Z,89
2023-04-21T07:48:00.757Z,89
2023-04-21T07:49:03.530Z,89
2023-04-21T07:50:04.471Z,89
2023-04-21T07:51:00.664Z,89
2023-04-21T07:52:00.696Z,88
2023-04-21T07:53:00.649Z,88
2023-04-21T07:54:00.729Z,88
2023-04-21T07:55:03.059Z,88
2023-04-21T07:56:00.761Z,88
2023-04-21T07:57:00.657Z,87
2023-04-21T07:58:00.740Z,87
2023-04-21T07:59:00.665Z,87
2023-04-21T08:00:12.445Z,87
2023-04-21T08:01:00.692Z,87
2023-04-21T08:02:01.098Z,87
2023-04-21T08:03:00.836Z,87
2023-04-21T08:04:00.877Z,87
2023-04-21T08:05:05.023Z,87
2023-04-21T08:06:00.973Z,87
2023-04-21T08:07:00.838Z,87
2023-04-21T08:08:00.879Z,86
2023-04-21T08:09:00.821Z,86
2023-04-21T08:10:03.562Z,86
2023-04-21T08:11:00.768Z,86
2023-04-21T08:12:00.848Z,86
2023-04-21T08:13:00.789Z,86
2023-04-21T08:14:00.864Z,86
2023-04-21T08:15:03.428Z,86
2023-04-21T08:16:00.912Z,86
2023-04-21T08:17:00.882Z,86
2023-04-21T08:18:00.966Z,86
2023-04-21T08:19:00.858Z,86
2023-04-21T08:20:03.845Z,85
2023-04-21T08:21:00.869Z,85
2023-04-21T08:22:00.906Z,85
2023-04-21T08:23:00.930Z,86
2023-04-21T08:24:00.995Z,86
2023-04-21T08:25:03.325Z,86
2023-04-21T08:26:00.935Z,86
2023-04-21T08:27:00.864Z,86
2023-04-21T08:28:00.950Z,86
2023-04-21T08:29:02.785Z,86
2023-04-21T08:30:04.009Z,86
2023-04-21T08:31:00.903Z,86
2023-04-21T08:32:01.285Z,86
2023-04-21T08:33:00.934Z,85
2023-04-21T08:34:02.805Z,85
2023-04-21T08:35:03.349Z,84
2023-04-21T08:36:07.428Z,84
2023-04-21T08:37:00.915Z,84
2023-04-21T08:38:00.989Z,84
2023-04-21T08:39:00.978Z,84
2023-04-21T08:40:03.938Z,84
2023-04-21T08:41:00.960Z,84
2023-04-21T08:42:01.039Z,84
2023-04-21T08:43:00.938Z,85
2023-04-21T08:44:01.052Z,85
2023-04-21T08:45:03.393Z,85
2023-04-21T08:46:01.104Z,85
2023-04-21T08:47:00.966Z,83
2023-04-21T08:48:01.098Z,83
2023-04-21T08:49:00.968Z,83
2023-04-21T08:50:04.025Z,83
2023-04-21T08:51:00.979Z,83
2023-04-21T08:52:01.080Z,83
2023-04-21T08:53:00.986Z,82
2023-04-21T08:54:01.081Z,82
2023-04-21T08:55:03.415Z,82
2023-04-21T08:56:10.840Z,82
2023-04-21T08:57:11.949Z,82
2023-04-21T08:58:01.072Z,83
2023-04-21T08:59:01.022Z,83
2023-04-21T09:00:07.921Z,82
2023-04-21T09:01:01.100Z,82
2023-04-21T09:02:01.326Z,82
2023-04-21T09:03:02.519Z,83
2023-04-21T09:04:04.689Z,83
2023-04-21T09:05:04.032Z,82
2023-04-21T09:06:01.835Z,82
2023-04-21T09:07:01.079Z,82
2023-04-21T09:08:01.703Z,82
2023-04-21T09:09:01.102Z,82
2023-04-21T09:10:04.488Z,81
2023-04-21T09:11:01.123Z,81
2023-04-21T09:12:01.242Z,81
2023-04-21T09:13:01.121Z,80
2023-04-21T09:14:01.862Z,80
2023-04-21T09:15:03.828Z,80
2023-04-21T09:16:02.581Z,80
2023-04-21T09:17:01.192Z,80
2023-04-21T09:18:01.332Z,80
2023-04-21T09:19:01.177Z,80
2023-04-21T09:20:05.052Z,80
2023-04-21T09:21:00.184Z,80
2023-04-21T09:22:00.267Z,80
2023-04-21T09:23:00.184Z,79
2023-04-21T09:24:00.258Z,79
2023-04-21T09:25:02.605Z,79
2023-04-21T09:26:00.270Z,79
2023-04-21T09:27:00.205Z,79
2023-04-21T09:28:00.277Z,79
2023-04-21T09:29:00.207Z,79
2023-04-21T09:30:03.014Z,79
2023-04-21T09:31:00.303Z,79
2023-04-21T09:32:00.321Z,79
2023-04-21T09:33:00.355Z,79
2023-04-21T09:34:07.566Z,79
2023-04-21T09:35:02.847Z,79
2023-04-21T09:36:00.339Z,79
2023-04-21T09:37:00.309Z,79
2023-04-21T09:38:00.527Z,78
2023-04-21T09:40:05.210Z,78
2023-04-21T09:41:00.296Z,78
2023-04-21T09:42:00.367Z,78
2023-04-21T09:43:00.289Z,78
2023-04-21T09:44:00.393Z,78
2023-04-21T09:45:28.457Z,78
2023-04-21T09:46:00.426Z,77
2023-04-21T09:47:00.333Z,77
2023-04-21T09:48:00.542Z,77
2023-04-21T09:49:00.344Z,78
2023-04-21T09:50:03.425Z,78
2023-04-21T09:53:00.392Z,76
2023-04-21T09:54:00.471Z,75
2023-04-21T09:55:03.806Z,75
2023-04-21T09:56:00.486Z,74
2023-04-21T09:57:00.421Z,74
2023-04-21T09:58:00.496Z,74
2023-04-21T09:59:00.403Z,72
2023-04-21T10:00:04.529Z,72
2023-04-21T10:01:00.459Z,73
2023-04-21T10:02:00.627Z,73
2023-04-21T10:03:00.648Z,73
2023-04-21T10:04:00.687Z,72
2023-04-21T10:05:03.366Z,72
2023-04-21T10:06:00.681Z,72
2023-04-21T10:07:00.584Z,72
2023-04-21T10:08:00.643Z,72
2023-04-21T10:09:00.613Z,70
2023-04-21T10:10:03.529Z,70
2023-04-21T10:11:00.608Z,70
2023-04-21T10:12:00.659Z,70
2023-04-21T10:13:00.584Z,70
2023-04-21T10:14:00.733Z,70
2023-04-21T10:15:03.538Z,70
2023-04-21T10:16:00.682Z,70
2023-04-21T10:17:00.629Z,71
2023-04-21T10:18:00.713Z,71
2023-04-21T10:19:00.647Z,70
2023-04-21T10:20:04.627Z,70
2023-04-21T10:21:00.657Z,70
2023-04-21T10:22:00.724Z,69
2023-04-21T10:23:00.675Z,69
2023-04-21T10:24:00.774Z,70
2023-04-21T10:25:03.545Z,70
2023-04-21T10:26:00.686Z,69
2023-04-21T10:27:00.713Z,69
2023-04-21T10:28:00.784Z,69
2023-04-21T10:29:00.637Z,68
2023-04-21T10:30:04.651Z,68
2023-04-21T10:31:00.743Z,68
2023-04-21T10:32:00.966Z,68
2023-04-21T10:33:00.702Z,68
2023-04-21T10:34:02.611Z,66
2023-04-21T10:35:03.225Z,66
2023-04-21T10:36:00.765Z,65
2023-04-21T10:37:00.704Z,65
2023-04-21T10:38:00.886Z,65
2023-04-21T10:39:00.750Z,66
2023-04-21T10:40:04.139Z,66
2023-04-21T10:41:00.755Z,66
2023-04-21T10:42:00.927Z,63
2023-04-21T10:43:00.794Z,63
2023-04-21T10:44:00.998Z,63
2023-04-21T10:45:03.257Z,63
2023-04-21T10:46:00.782Z,63
2023-04-21T10:47:00.859Z,65
2023-04-21T10:48:00.848Z,65
2023-04-21T10:49:00.812Z,64
2023-04-21T10:50:04.933Z,64
2023-04-21T10:51:00.825Z,64
2023-04-21T10:52:00.892Z,64
2023-04-21T10:53:00.751Z,64
2023-04-21T10:54:00.949Z,64
2023-04-21T10:55:03.723Z,64
2023-04-21T10:56:00.902Z,64
2023-04-21T10:57:00.872Z,64
2023-04-21T10:58:00.931Z,64
2023-04-21T10:59:00.791Z,64
2023-04-21T11:00:05.324Z,64
2023-04-21T11:01:00.815Z,63
2023-04-21T11:02:00.930Z,63
2023-04-21T11:03:01.041Z,63
2023-04-21T11:04:01.029Z,63
2023-04-21T11:05:03.536Z,63
2023-04-21T11:06:00.894Z,63
2023-04-21T11:07:00.847Z,62
2023-04-21T11:08:01.128Z,62
2023-04-21T11:09:00.913Z,61
2023-04-21T11:10:04.220Z,61
2023-04-21T11:11:00.902Z,61
2023-04-21T11:12:00.960Z,61
2023-04-21T11:13:00.815Z,61
2023-04-21T11:14:00.925Z,61
2023-04-21T11:15:03.301Z,59
2023-04-21T11:16:00.882Z,59
2023-04-21T11:17:00.845Z,59
2023-04-21T11:18:00.966Z,59
2023-04-21T11:19:00.869Z,59
2023-04-21T11:20:04.071Z,61
2023-04-21T11:21:00.850Z,61
2023-04-21T11:22:00.921Z,59
2023-04-21T11:23:00.827Z,59
2023-04-21T11:24:00.951Z,59
2023-04-21T11:25:03.222Z,58
2023-04-21T11:26:00.981Z,58
2023-04-21T11:27:00.869Z,61
2023-04-21T11:28:00.956Z,61
2023-04-21T11:29:00.884Z,61
2023-04-21T11:30:04.575Z,60
2023-04-21T11:31:00.911Z,60
2023-04-21T11:32:00.984Z,60
2023-04-21T11:33:00.967Z,60
2023-04-21T11:34:01.030Z,60
2023-04-21T11:35:03.266Z,60
2023-04-21T11:36:01.074Z,60
2023-04-21T11:37:00.927Z,60
2023-04-21T11:38:01.018Z,61
2023-04-21T11:39:00.950Z,61
2023-04-21T11:40:03.771Z,62
2023-04-21T11:41:00.936Z,62
2023-04-21T11:42:01.046Z,61
2023-04-21T11:43:00.964Z,61
2023-04-21T11:44:01.092Z,59
2023-04-21T11:45:04.251Z,59
2023-04-21T11:46:01.232Z,59
2023-04-21T11:47:00.984Z,58
2023-04-21T11:48:01.134Z,58
2023-04-21T11:49:01.064Z,58
2023-04-21T11:50:03.752Z,57
2023-04-21T11:51:01.002Z,57
2023-04-21T11:52:08.309Z,57
2023-04-21T11:53:01.029Z,57
2023-04-21T11:54:01.106Z,57
2023-04-21T11:55:03.690Z,57
2023-04-21T11:56:01.114Z,57
2023-04-21T11:57:02.682Z,59
2023-04-21T11:58:01.109Z,59
2023-04-21T11:59:01.124Z,59
2023-04-21T12:00:04.206Z,59
2023-04-21T12:01:01.071Z,59
2023-04-21T12:02:01.218Z,59
2023-04-21T12:03:01.272Z,59
2023-04-21T12:04:01.492Z,59
2023-04-21T12:05:03.759Z,59
2023-04-21T12:06:01.214Z,59
2023-04-21T12:07:01.102Z,59
2023-04-21T12:08:01.359Z,59
2023-04-21T12:09:01.132Z,59
2023-04-21T12:10:04.537Z,58
2023-04-21T12:11:01.120Z,58
2023-04-21T12:12:01.202Z,58
2023-04-21T12:13:01.162Z,58
2023-04-21T12:14:01.242Z,58
2023-04-21T12:15:03.934Z,58
2023-04-21T12:16:01.298Z,58
2023-04-21T12:17:01.145Z,58
2023-04-21T12:18:01.350Z,58
2023-04-21T12:19:01.165Z,58
2023-04-21T12:20:03.385Z,58
2023-04-21T12:21:00.175Z,58
2023-04-21T12:22:00.240Z,58
2023-04-21T12:23:00.216Z,60
2023-04-21T12:24:00.256Z,60
2023-04-21T12:25:02.846Z,60
2023-04-21T12:26:00.269Z,60
2023-04-21T12:27:00.199Z,61
2023-04-21T12:28:00.311Z,61
2023-04-21T12:29:00.197Z,61
2023-04-21T12:30:03.189Z,60
2023-04-21T12:31:00.225Z,60
2023-04-21T12:32:00.510Z,60
2023-04-21T12:33:00.509Z,61
2023-04-21T12:34:00.442Z,61
2023-04-21T12:35:02.770Z,61
2023-04-21T12:36:00.315Z,60
2023-04-21T12:37:00.237Z,60
2023-04-21T12:38:00.346Z,59
2023-04-21T12:39:00.257Z,59
2023-04-21T12:40:03.895Z,58
2023-04-21T12:41:00.262Z,58
2023-04-21T12:42:00.345Z,58
2023-04-21T12:43:00.286Z,58
2023-04-21T12:44:00.390Z,58
2023-04-21T12:45:02.732Z,58
2023-04-21T12:46:00.426Z,58
2023-04-21T12:47:00.296Z,58
2023-04-21T12:48:00.469Z,58
2023-04-21T12:49:00.304Z,58
2023-04-21T12:50:03.299Z,57
2023-04-21T12:51:00.357Z,57
2023-04-21T12:52:00.398Z,57
2023-04-21T12:53:00.339Z,56
2023-04-21T12:54:00.403Z,56
2023-04-21T12:55:02.713Z,56
2023-04-21T12:56:04.517Z,56
2023-04-21T12:57:00.355Z,56
2023-04-21T12:58:00.403Z,56
2023-04-21T12:59:00.346Z,57
2023-04-21T13:00:04.764Z,57
2023-04-21T13:01:00.530Z,57
2023-04-21T13:02:00.525Z,57
2023-04-21T13:03:00.575Z,57
2023-04-21T13:04:00.725Z,57
2023-04-21T13:05:02.750Z,57
2023-04-21T13:06:00.504Z,56
2023-04-21T13:07:00.410Z,56
2023-04-21T13:08:00.506Z,56
2023-04-21T13:09:00.421Z,56
2023-04-21T13:10:03.782Z,56
2023-04-21T13:11:00.424Z,56
2023-04-21T13:12:00.502Z,56
2023-04-21T13:13:00.451Z,57
2023-04-21T13:14:00.529Z,57
2023-04-21T13:15:02.869Z,57
2023-04-21T13:16:00.512Z,55
2023-04-21T13:17:00.538Z,55
2023-04-21T13:18:00.542Z,55
2023-04-21T13:19:00.457Z,56
2023-04-21T13:20:03.316Z,56
2023-04-21T13:21:00.481Z,56
2023-04-21T13:22:00.547Z,55
2023-04-21T13:23:00.488Z,55
2023-04-21T13:24:00.570Z,55
2023-04-21T13:25:02.883Z,55
2023-04-21T13:26:00.598Z,55
2023-04-21T13:27:00.517Z,55
2023-04-21T13:28:00.590Z,55
2023-04-21T13:29:00.518Z,55
2023-04-21T13:30:04.972Z,55
2023-04-21T13:31:00.561Z,55
2023-04-21T13:32:00.613Z,55
2023-04-21T13:33:00.570Z,55
2023-04-21T13:34:00.632Z,55
2023-04-21T13:35:03.922Z,55
2023-04-21T13:36:00.647Z,55
2023-04-21T13:37:00.557Z,55
2023-04-21T13:38:00.700Z,55
2023-04-21T13:39:00.625Z,55
2023-04-21T13:40:03.379Z,55
2023-04-21T13:41:00.619Z,55
2023-04-21T13:42:00.671Z,56
2023-04-21T13:43:00.607Z,56
2023-04-21T13:44:00.681Z,56
2023-04-21T13:45:03.073Z,56
2023-04-21T13:46:00.771Z,56
2023-04-21T13:47:00.737Z,56
2023-04-21T13:48:00.811Z,57
2023-04-21T13:49:00.646Z,57
2023-04-21T13:50:03.570Z,57
2023-04-21T13:51:00.648Z,57
2023-04-21T13:52:00.724Z,57
2023-04-21T13:53:00.677Z,57
2023-04-21T13:54:00.921Z,56
2023-04-21T13:55:03.058Z,56
2023-04-21T13:56:00.803Z,56
2023-04-21T13:57:00.722Z,56
2023-04-21T13:58:00.752Z,55
2023-04-21T13:59:00.736Z,55
2023-04-21T14:00:04.309Z,55
2023-04-21T14:01:00.722Z,53
2023-04-21T14:02:00.965Z,53
2023-04-21T14:03:00.981Z,53
2023-04-21T14:04:01.016Z,53
2023-04-21T14:05:03.330Z,53
2023-04-21T14:06:00.844Z,52
2023-04-21T14:07:00.760Z,52
2023-04-21T14:08:00.901Z,52
2023-04-21T14:09:00.780Z,52
2023-04-21T14:10:03.686Z,52
2023-04-21T14:11:00.791Z,52
2023-04-21T14:12:00.840Z,52
2023-04-21T14:13:00.781Z,52
2023-04-21T14:14:09.678Z,52
2023-04-21T14:15:03.319Z,52
2023-04-21T14:16:00.890Z,52
2023-04-21T14:17:00.851Z,51
2023-04-21T14:18:00.937Z,51